Time;durP1;ratioP1;P1;durP2;ratioP2;P2;SDS_P1;SDS_P2;PMS_P1;PMS_P2;Temp;Humidity;BMP_temperature;BMP_pressure;BME280_temperature;BME280_humidity;BME280_pressure;Samples;Min_cycle;Max_cycle;Signal;HPM_P1;HPM_P2
2021/04/29 00:01:07;;;;;;;4.70;4.30;;;;;;;14.25;60.46;101727.30;1738669;82;21157;-48
2021/04/29 00:03:35;;;;;;;5.47;4.50;;;;;;;14.15;60.87;101732.32;1735436;82;21173;-48
2021/04/29 00:06:04;;;;;;;5.53;5.03;;;;;;;14.25;60.65;101725.99;1732963;82;21176;-48
2021/04/29 00:08:33;;;;;;;5.62;5.12;;;;;;;14.24;60.53;101718.19;1726989;82;21169;-48
2021/04/29 00:11:02;;;;;;;5.90;4.78;;;;;;;14.23;60.56;101717.31;1724263;82;21157;-48
2021/04/29 00:13:29;;;;;;;6.87;4.45;;;;;;;14.25;60.51;101716.83;1734128;82;21176;-48
2021/04/29 00:15:57;;;;;;;6.85;4.40;;;;;;;14.28;60.57;101711.55;1730791;82;21279;-48
2021/04/29 00:18:25;;;;;;;5.42;4.55;;;;;;;14.30;60.57;101713.68;1721163;82;21304;-48
2021/04/29 00:20:55;;;;;;;6.78;4.30;;;;;;;14.33;60.46;101712.32;1724244;82;21145;-48
2021/04/29 00:23:26;;;;;;;5.22;3.98;;;;;;;14.36;60.25;101722.70;1725356;82;21118;-49
2021/04/29 00:25:53;;;;;;;6.90;4.30;;;;;;;14.38;59.85;101726.19;1695710;84;21224;-49
2021/04/29 00:28:21;;;;;;;5.40;4.17;;;;;;;14.42;59.65;101733.52;1697587;84;21161;-48
2021/04/29 00:30:51;;;;;;;5.55;4.17;;;;;;;14.44;59.64;101731.73;1697246;83;21192;-48
2021/04/29 00:33:18;;;;;;;4.20;3.77;;;;;;;14.42;59.60;101730.45;1705429;84;21148;-48
2021/04/29 00:35:47;;;;;;;6.08;4.37;;;;;;;14.44;59.55;101728.67;1693913;84;21605;-48
2021/04/29 00:38:16;;;;;;;5.20;4.70;;;;;;;14.45;59.33;101729.50;1700117;84;21327;-48
2021/04/29 00:40:45;;;;;;;4.87;3.65;;;;;;;14.46;59.20;101732.11;1700422;84;21192;-48
2021/04/29 00:43:13;;;;;;;4.65;3.98;;;;;;;14.47;59.01;101726.41;1700143;84;21160;-48
2021/04/29 00:45:41;;;;;;;6.50;4.40;;;;;;;14.49;58.96;101726.79;1701286;84;21219;-48
2021/04/29 00:48:09;;;;;;;5.00;4.47;;;;;;;14.51;58.97;101728.05;1698027;84;21213;-48
2021/04/29 00:50:39;;;;;;;4.65;4.05;;;;;;;14.52;58.93;101725.87;1697388;84;21200;-48
2021/04/29 00:53:07;;;;;;;6.15;4.83;;;;;;;14.53;58.90;101726.27;1701947;83;21125;-48
2021/04/29 00:55:35;;;;;;;7.47;4.60;;;;;;;14.53;58.86;101721.89;1706652;84;21133;-48
2021/04/29 00:58:03;;;;;;;4.55;3.98;;;;;;;14.55;58.83;101730.58;1703121;84;21188;-48
2021/04/29 01:00:31;;;;;;;6.85;4.40;;;;;;;14.55;59.00;101741.50;1697231;84;21168;-48
2021/04/29 01:03:14;;;;;;;6.83;4.40;;;;;;;14.54;59.10;101739.34;1708580;83;21128;-48
2021/04/29 01:05:50;;;;;;;4.78;4.33;;;;;;;14.55;59.10;101734.51;1679124;85;21216;-48
2021/04/29 01:08:40;;;;;;;8.30;5.05;;;;;;;14.58;59.02;101733.14;1700561;84;21648;-48
2021/04/29 01:11:17;;;;;;;5.15;4.33;;;;;;;14.59;59.00;101734.84;1699341;84;21589;-48
2021/04/29 01:13:55;;;;;;;4.60;4.10;;;;;;;14.59;59.11;101735.29;1675937;85;21684;-48
2021/04/29 01:16:24;;;;;;;5.78;4.55;;;;;;;14.57;59.28;101734.02;1692238;84;21172;-48
2021/04/29 01:18:53;;;;;;;5.90;4.72;;;;;;;14.57;59.43;101734.02;1698759;84;21612;-48
2021/04/29 01:21:22;;;;;;;5.00;4.47;;;;;;;14.57;59.43;101737.95;1682452;84;21326;-48
2021/04/29 01:24:21;;;;;;;5.80;5.20;;;;;;;14.55;59.44;101731.89;1729964;82;21157;-48
2021/04/29 01:26:53;;;;;;;5.08;4.58;;;;;;;14.55;59.53;101734.95;1726930;82;21323;-48
2021/04/29 01:29:27;;;;;;;5.42;4.83;;;;;;;14.53;59.56;101732.38;1726129;82;21196;-48
2021/04/29 01:31:55;;;;;;;6.05;4.75;;;;;;;14.53;59.71;101731.06;1725261;82;21309;-48
2021/04/29 01:34:26;;;;;;;5.60;5.00;;;;;;;14.51;59.82;101723.69;1728580;82;21600;-48
2021/04/29 01:36:54;;;;;;;5.97;5.03;;;;;;;14.49;59.86;101722.86;1727814;82;21168;-48
2021/04/29 01:39:22;;;;;;;6.05;4.62;;;;;;;14.50;59.85;101722.42;1728245;82;21200;-49
2021/04/29 01:41:52;;;;;;;5.53;4.60;;;;;;;14.50;59.79;101724.60;1726624;82;21157;-48
2021/04/29 01:44:22;;;;;;;6.17;5.22;;;;;;;14.49;59.88;101718.06;1730665;82;21183;-48
2021/04/29 01:46:52;;;;;;;6.87;5.12;;;;;;;14.47;59.88;101717.23;1723308;82;21280;-48
2021/04/29 01:49:20;;;;;;;5.90;4.75;;;;;;;14.49;59.92;101714.14;1734116;82;21149;-48
2021/04/29 01:51:48;;;;;;;5.53;4.12;;;;;;;14.51;59.79;101711.91;1721851;82;21177;-49
2021/04/29 01:54:16;;;;;;;5.28;4.78;;;;;;;14.51;59.74;101711.91;1731767;82;21192;-48
2021/04/29 01:56:45;;;;;;;8.43;4.80;;;;;;;14.50;59.74;101710.20;1726741;82;21200;-48
2021/04/29 01:59:14;;;;;;;6.20;5.00;;;;;;;14.49;59.89;101708.90;1726693;82;21177;-48
2021/04/29 02:01:42;;;;;;;6.47;4.45;;;;;;;14.51;59.99;101706.66;1731176;82;21145;-48
2021/04/29 02:04:11;;;;;;;5.78;5.00;;;;;;;14.52;59.92;101703.16;1716396;83;21200;-48
2021/04/29 02:06:40;;;;;;;5.70;5.10;;;;;;;14.54;59.83;101700.06;1727335;82;21201;-48
2021/04/29 02:09:09;;;;;;;5.15;4.42;;;;;;;14.56;59.65;101703.51;1724345;82;21137;-48
2021/04/29 02:11:57;;;;;;;6.92;4.90;;;;;;;14.55;59.50;101697.84;1725163;82;21208;-48
2021/04/29 02:14:31;;;;;;;8.08;4.70;;;;;;;14.51;59.71;101704.05;1736040;82;21570;-48
2021/04/29 02:17:02;;;;;;;6.65;4.70;;;;;;;14.49;59.97;101703.66;1684603;84;21663;-48
2021/04/29 02:19:36;;;;;;;5.95;5.12;;;;;;;14.53;60.15;101699.63;1809986;79;22996;-49
2021/04/29 02:22:03;;;;;;;8.45;5.30;;;;;;;14.48;60.29;101701.95;1776743;80;21303;-49
2021/04/29 02:24:33;;;;;;;7.05;4.53;;;;;;;14.47;60.35;101702.39;1776967;80;21596;-48
2021/04/29 02:27:00;;;;;;;6.33;4.92;;;;;;;14.47;60.44;101706.77;1779914;80;21290;-49
2021/04/29 02:29:29;;;;;;;5.50;4.90;;;;;;;14.47;60.66;101705.02;1743472;80;21544;-49
2021/04/29 02:31:57;;;;;;;5.65;5.03;;;;;;;14.48;60.67;101705.88;1780404;80;21168;-49
2021/04/29 02:34:27;;;;;;;7.62;5.37;;;;;;;14.45;60.73;101705.50;1776029;80;21156;-49
2021/04/29 02:36:55;;;;;;;8.28;4.50;;;;;;;14.42;60.72;101696.86;1778285;80;21171;-49
2021/04/29 02:39:23;;;;;;;6.50;4.78;;;;;;;14.38;60.70;101693.90;1777690;80;22065;-49
2021/04/29 02:41:51;;;;;;;5.40;4.37;;;;;;;14.35;60.76;101694.82;1779150;80;21155;-50
2021/04/29 02:44:18;;;;;;;6.42;5.05;;;;;;;14.31;60.83;101690.55;1779900;80;21212;-49
2021/04/29 02:46:47;;;;;;;6.70;4.78;;;;;;;14.32;60.77;101694.87;1771155;80;21142;-48
2021/04/29 02:49:15;;;;;;;8.15;5.10;;;;;;;14.31;60.70;101694.47;1776061;80;21176;-49
2021/04/29 02:51:43;;;;;;;6.72;4.58;;;;;;;14.34;60.61;101698.31;1782313;80;21212;-49
2021/04/29 02:54:11;;;;;;;8.43;4.83;;;;;;;14.36;60.49;101695.22;1747575;80;21144;-49
2021/04/29 02:56:40;;;;;;;5.95;4.70;;;;;;;14.38;60.45;101696.08;1776556;80;21493;-49
2021/04/29 02:59:11;;;;;;;5.90;4.87;;;;;;;14.40;60.50;101697.34;1776731;80;21196;-49
2021/04/29 03:01:42;;;;;;;;;;;;;;;14.40;60.44;101695.59;1779476;80;21132;-49
2021/04/29 03:04:09;;;;;;;9.78;5.30;;;;;;;14.41;60.46;101691.19;1781440;80;20481;-49
2021/04/29 03:06:38;;;;;;;5.70;5.17;;;;;;;14.38;60.41;101694.77;1779307;80;21125;-48
2021/04/29 03:09:06;;;;;;;8.50;5.67;;;;;;;14.37;60.35;101695.65;1783594;80;21282;-49
2021/04/29 03:11:35;;;;;;;8.20;5.40;;;;;;;14.35;60.45;101710.53;1776629;80;21309;-49
2021/04/29 03:14:03;;;;;;;8.08;5.33;;;;;;;14.34;60.52;101715.34;1772269;80;21137;-49
2021/04/29 03:16:31;;;;;;;10.23;6.00;;;;;;;14.35;60.62;101726.23;1777374;80;21152;-49
2021/04/29 03:18:59;;;;;;;6.00;5.03;;;;;;;14.36;60.63;101731.87;1764141;80;21160;-48
2021/04/29 03:21:27;;;;;;;7.85;4.95;;;;;;;14.38;60.63;101734.48;1760120;81;21141;-49
2021/04/29 03:23:55;;;;;;;5.72;5.22;;;;;;;14.39;60.66;101725.27;1766657;81;21596;-49
2021/04/29 03:26:23;;;;;;;7.47;5.50;;;;;;;14.42;60.75;101731.77;1763713;81;21596;-49
2021/04/29 03:28:52;;;;;;;6.40;5.10;;;;;;;14.44;60.77;101732.59;1763938;81;21398;-48
2021/04/29 03:31:19;;;;;;;6.17;5.17;;;;;;;14.46;60.77;101737.35;1762891;81;21600;-49
2021/04/29 03:33:47;;;;;;;5.65;5.05;;;;;;;14.49;60.74;101745.13;1765351;81;21176;-49
2021/04/29 03:36:16;;;;;;;6.33;5.35;;;;;;;14.53;60.68;101749.84;1760032;81;21180;-49
2021/04/29 03:38:44;;;;;;;5.67;4.65;;;;;;;14.53;60.86;101752.02;1760507;81;21205;-48
2021/04/29 03:41:12;;;;;;;6.37;5.00;;;;;;;14.53;61.00;101754.63;1769616;81;21144;-49
2021/04/29 03:43:41;;;;;;;8.85;5.33;;;;;;;14.54;60.96;101756.38;1762695;81;21161;-48
2021/04/29 03:46:09;;;;;;;7.83;5.22;;;;;;;14.59;60.82;101761.05;1762473;81;21628;-49
2021/04/29 03:48:37;;;;;;;6.15;5.33;;;;;;;14.61;60.66;101768.42;1763010;81;21156;-50
2021/04/29 03:51:05;;;;;;;5.47;4.95;;;;;;;14.64;60.66;101773.61;1760638;81;21735;-49
2021/04/29 03:53:33;;;;;;;7.83;5.87;;;;;;;14.66;60.61;101765.27;1764455;81;21192;-49
2021/04/29 03:56:02;;;;;;;7.33;5.90;;;;;;;14.67;60.44;101769.59;1763516;81;21465;-49
2021/04/29 03:58:31;;;;;;;7.97;5.25;;;;;;;14.71;60.34;101769.53;1764043;81;21140;-49
2021/04/29 04:00:59;;;;;;;6.10;5.50;;;;;;;14.71;60.14;101778.70;1762073;81;21169;-49
2021/04/29 04:03:27;;;;;;;6.58;4.72;;;;;;;14.71;60.11;101778.70;1762790;81;21121;-49
2021/04/29 04:05:55;;;;;;;9.05;5.47;;;;;;;14.75;60.06;101775.13;1765118;81;21176;-49
2021/04/29 04:08:23;;;;;;;8.08;5.40;;;;;;;14.77;60.01;101778.56;1766153;81;21133;-49
2021/04/29 04:10:50;;;;;;;7.25;5.47;;;;;;;14.80;59.94;101778.48;1765335;81;21173;-49
2021/04/29 04:13:20;;;;;;;9.58;5.42;;;;;;;14.85;59.79;101774.01;1756653;81;21302;-49
2021/04/29 04:15:48;;;;;;;8.23;4.80;;;;;;;14.88;59.63;101776.57;1769383;81;21148;-48
2021/04/29 04:18:16;;;;;;;5.47;4.37;;;;;;;14.90;59.43;101776.09;1763238;80;21625;-49
2021/04/29 04:20:44;;;;;;;4.92;4.42;;;;;;;14.92;59.39;101775.60;1770263;80;21290;-49
2021/04/29 04:23:12;;;;;;;6.50;4.72;;;;;;;14.93;59.35;101782.11;1767735;80;21152;-50
2021/04/29 04:25:41;;;;;;;6.83;4.80;;;;;;;14.96;59.20;101783.33;1727664;82;21165;-49
2021/04/29 04:28:09;;;;;;;6.20;5.05;;;;;;;15.00;59.07;101790.70;1727498;81;21198;-49
2021/04/29 04:30:37;;;;;;;6.10;4.80;;;;;;;15.00;59.00;101788.08;1727973;81;21170;-48
2021/04/29 04:33:06;;;;;;;6.12;4.25;;;;;;;15.02;59.09;101787.59;1768765;80;21149;-49
2021/04/29 04:35:34;;;;;;;5.78;3.77;;;;;;;15.05;59.13;101796.23;1764799;80;21184;-49
2021/04/29 04:38:02;;;;;;;5.85;4.55;;;;;;;15.09;59.16;101799.64;1771289;80;21143;-49
2021/04/29 04:40:30;;;;;;;5.95;4.33;;;;;;;15.12;59.17;101800.89;1769937;80;21136;-49
2021/04/29 04:42:58;;;;;;;5.33;4.70;;;;;;;15.18;59.08;101800.30;1768486;80;21282;-48
2021/04/29 04:45:27;;;;;;;5.37;4.25;;;;;;;15.22;58.97;101799.77;1766154;80;21156;-49
2021/04/29 04:47:55;;;;;;;5.20;4.42;;;;;;;15.23;58.91;101797.54;1771132;80;21179;-49
2021/04/29 04:50:24;;;;;;;4.67;3.70;;;;;;;15.24;58.96;101797.97;1768883;80;21580;-49
2021/04/29 04:52:52;;;;;;;4.55;4.15;;;;;;;15.28;58.94;101803.55;1775455;80;21184;-49
2021/04/29 04:55:20;;;;;;;7.12;5.00;;;;;;;15.30;59.03;101797.81;1770380;80;21147;-48
2021/04/29 04:57:47;;;;;;;7.33;4.92;;;;;;;15.32;58.96;101796.02;1767277;80;21136;-49
2021/04/29 05:00:18;;;;;;;5.50;4.42;;;;;;;15.33;58.88;101788.58;1772855;80;21294;-49
2021/04/29 05:02:46;;;;;;;5.08;4.53;;;;;;;15.35;58.86;101786.77;1771780;80;21123;-49
2021/04/29 05:05:14;;;;;;;4.40;4.00;;;;;;;15.37;58.92;101779.73;1769557;80;21290;-49
2021/04/29 05:07:42;;;;;;;8.00;4.25;;;;;;;15.40;59.15;101780.95;1763684;80;21290;-49
2021/04/29 05:10:11;;;;;;;6.50;5.12;;;;;;;15.46;59.26;101779.52;1771077;80;21576;-49
2021/04/29 05:12:39;;;;;;;5.87;4.53;;;;;;;15.48;59.21;101775.09;1768664;80;21168;-49
2021/04/29 05:15:09;;;;;;;8.18;4.42;;;;;;;15.50;59.16;101778.53;1773241;80;21636;-49
2021/04/29 05:17:37;;;;;;;6.83;4.17;;;;;;;15.52;59.19;101780.66;1773910;79;21152;-49
2021/04/29 05:20:07;;;;;;;6.72;5.00;;;;;;;15.55;59.11;101774.05;1759473;80;21120;-49
2021/04/29 05:22:35;;;;;;;6.55;5.08;;;;;;;15.56;59.14;101770.50;1764888;81;21153;-50
2021/04/29 05:25:04;;;;;;;5.20;4.60;;;;;;;15.55;59.25;101762.23;1761213;81;21125;-49
2021/04/29 05:27:32;;;;;;;8.00;5.42;;;;;;;15.53;59.50;101761.86;1766103;80;21125;-50
2021/04/29 05:30:01;;;;;;;5.78;5.15;;;;;;;15.48;59.65;101764.59;1706719;84;21292;-49
2021/04/29 05:32:28;;;;;;;9.58;5.37;;;;;;;15.43;59.80;101761.25;1755554;81;21568;-49
2021/04/29 05:34:56;;;;;;;7.72;5.40;;;;;;;15.38;59.94;101761.77;1759723;81;21525;-49
2021/04/29 05:37:25;;;;;;;6.83;5.70;;;;;;;15.32;60.00;101764.11;1767176;81;21204;-50
2021/04/29 05:39:54;;;;;;;6.50;5.78;;;;;;;15.31;60.11;101759.74;1761387;81;21153;-49
2021/04/29 05:42:23;;;;;;;7.35;6.22;;;;;;;15.31;60.18;101756.28;1762343;81;21314;-49
2021/04/29 05:44:51;;;;;;;9.20;6.17;;;;;;;15.28;60.28;101757.66;1751108;81;21192;-49
2021/04/29 05:47:20;;;;;;;7.50;5.85;;;;;;;15.24;60.46;101756.02;1762131;81;21292;-49
2021/04/29 05:49:48;;;;;;;7.65;6.12;;;;;;;15.22;60.90;101756.50;1766230;81;21156;-49
2021/04/29 05:52:17;;;;;;;8.73;6.62;;;;;;;15.23;61.32;101759.52;1766375;81;21129;-49
2021/04/29 05:54:46;;;;;;;7.08;6.10;;;;;;;15.25;61.42;101762.52;1766217;81;21125;-49
2021/04/29 05:57:14;;;;;;;6.10;5.45;;;;;;;15.30;61.29;101759.80;1765805;81;21271;-49
2021/04/29 05:59:42;;;;;;;5.65;5.08;;;;;;;15.35;61.14;101757.93;1708492;82;21166;-50
2021/04/29 06:02:10;;;;;;;7.10;5.87;;;;;;;15.36;61.02;101763.57;1758286;79;21604;-49
2021/04/29 06:04:40;;;;;;;6.70;5.70;;;;;;;15.33;60.94;101762.35;1711178;82;21718;-50
2021/04/29 06:07:10;;;;;;;8.25;5.80;;;;;;;15.32;61.13;101751.44;1762568;79;21578;-50
2021/04/29 06:09:38;;;;;;;6.37;5.25;;;;;;;15.32;61.09;101755.37;1723750;82;21168;-50
2021/04/29 06:12:08;;;;;;;6.83;5.35;;;;;;;15.33;61.09;101750.55;1681420;83;21545;-49
2021/04/29 06:14:36;;;;;;;6.25;5.65;;;;;;;15.34;60.98;101749.63;1698911;83;21211;-50
2021/04/29 06:17:05;;;;;;;6.80;6.03;;;;;;;15.31;60.95;101744.01;1705935;83;21660;-49
2021/04/29 06:19:34;;;;;;;10.80;7.65;;;;;;;15.32;61.07;101747.50;1698132;83;21152;-49
2021/04/29 06:22:03;;;;;;;8.03;5.65;;;;;;;15.33;60.92;101751.86;1669087;85;21148;-49
2021/04/29 06:24:31;;;;;;;9.35;5.67;;;;;;;15.31;60.76;101756.28;1676345;85;21607;-49
2021/04/29 06:26:59;;;;;;;9.95;6.58;;;;;;;15.31;60.79;101753.19;1684492;84;21346;-49
2021/04/29 06:29:28;;;;;;;7.65;6.83;;;;;;;15.31;60.90;101752.36;1677849;84;21208;-49
2021/04/29 06:31:57;;;;;;;7.55;6.80;;;;;;;15.31;60.89;101754.97;1678590;85;21133;-49
2021/04/29 06:34:25;;;;;;;15.75;6.95;;;;;;;15.34;60.57;101758.81;1680169;84;21164;-49
2021/04/29 06:36:53;;;;;;;7.30;6.37;;;;;;;15.32;60.74;101756.68;1683297;84;21196;-49
2021/04/29 06:39:21;;;;;;;8.23;5.20;;;;;;;15.34;60.74;101753.56;1671677;84;21172;-49
2021/04/29 06:41:50;;;;;;;8.98;6.17;;;;;;;15.34;60.34;101754.44;1670445;84;21164;-49
2021/04/29 06:44:18;;;;;;;8.65;7.78;;;;;;;15.33;60.33;101762.35;1664765;84;21128;-49
2021/04/29 06:46:48;;;;;;;10.88;7.30;;;;;;;15.34;60.57;101766.69;1681899;84;21136;-49
2021/04/29 06:49:16;;;;;;;10.48;7.60;;;;;;;15.37;60.57;101761.38;1675729;84;21170;-49
2021/04/29 06:51:44;;;;;;;12.70;8.18;;;;;;;15.41;60.33;101768.27;1675287;84;21164;-49
2021/04/29 06:54:12;;;;;;;15.65;8.53;;;;;;;15.46;60.30;101772.95;1681211;84;21314;-49
2021/04/29 06:56:40;;;;;;;12.58;8.50;;;;;;;15.51;60.03;101773.71;1678861;85;21394;-49
2021/04/29 06:59:08;;;;;;;10.32;8.13;;;;;;;15.56;59.64;101779.69;1673965;84;21178;-49
2021/04/29 07:01:37;;;;;;;10.03;8.13;;;;;;;15.62;59.16;101782.14;1677029;85;21177;-49
2021/04/29 07:04:06;;;;;;;12.80;8.05;;;;;;;15.63;58.82;101782.57;1650061;84;21195;-49
2021/04/29 07:06:34;;;;;;;9.25;7.47;;;;;;;15.66;58.62;101790.34;1721040;82;21176;-49
2021/04/29 07:09:02;;;;;;;10.32;7.42;;;;;;;15.68;58.56;101791.20;1759730;80;21580;-49
2021/04/29 07:11:30;;;;;;;10.35;7.55;;;;;;;15.67;58.71;101790.77;1749371;80;21326;-49
2021/04/29 07:13:59;;;;;;;9.88;7.45;;;;;;;15.73;58.44;101797.17;1753377;80;21161;-49
2021/04/29 07:16:27;;;;;;;15.32;8.23;;;;;;;15.79;58.11;101786.50;1710946;82;21770;-49
2021/04/29 07:18:56;;;;;;;9.18;7.03;;;;;;;15.82;58.07;101796.06;1749668;80;21342;-49
2021/04/29 07:21:24;;;;;;;8.50;6.37;;;;;;;15.83;58.04;101790.77;1726079;82;21590;-49
2021/04/29 07:23:52;;;;;;;8.55;6.78;;;;;;;15.87;58.07;101797.66;1736664;82;21561;-49
2021/04/29 07:26:20;;;;;;;11.97;6.65;;;;;;;15.90;57.97;101800.21;1727961;82;21168;-49
2021/04/29 07:28:48;;;;;;;9.35;6.60;;;;;;;15.96;57.72;101801.36;1726004;82;21132;-50
2021/04/29 07:31:16;;;;;;;9.75;6.87;;;;;;;15.99;57.51;101793.86;1732854;82;21140;-49
2021/04/29 07:33:44;;;;;;;7.90;5.15;;;;;;;15.99;57.34;101796.00;1728047;82;21104;-49
2021/04/29 07:36:13;;;;;;;12.53;5.53;;;;;;;15.97;57.28;101800.44;1690017;84;21718;-49
2021/04/29 07:38:41;;;;;;;7.80;5.20;;;;;;;15.96;57.32;101800.05;1733846;82;21318;-50
2021/04/29 07:41:09;;;;;;;7.35;5.58;;;;;;;15.96;57.43;101798.73;1737360;82;21109;-49
2021/04/29 07:43:37;;;;;;;6.35;5.67;;;;;;;16.01;57.38;101808.64;1719679;82;21108;-49
2021/04/29 07:46:05;;;;;;;6.37;5.78;;;;;;;16.09;57.10;101809.76;1731047;82;21222;-49
2021/04/29 07:48:33;;;;;;;7.62;5.78;;;;;;;16.10;56.93;101808.39;1735527;82;21154;-49
2021/04/29 07:51:01;;;;;;;7.62;5.70;;;;;;;16.14;56.83;101812.66;1723846;82;21157;-49
2021/04/29 07:53:30;;;;;;;9.63;5.53;;;;;;;16.15;56.82;101813.53;1734431;82;21254;-49
2021/04/29 07:55:59;;;;;;;7.50;4.87;;;;;;;16.13;56.84;101811.39;1726993;82;21154;-49
2021/04/29 07:58:26;;;;;;;9.88;5.60;;;;;;;16.13;56.88;101810.95;1707679;83;21130;-49
2021/04/29 08:00:56;;;;;;;6.65;5.65;;;;;;;16.13;56.74;101810.95;1722057;82;21128;-49
2021/04/29 08:03:24;;;;;;;7.95;5.70;;;;;;;16.14;56.66;101814.41;1735629;82;21698;-49
2021/04/29 08:05:52;;;;;;;7.10;5.37;;;;;;;16.13;56.53;101811.39;1715633;83;21177;-49
2021/04/29 08:08:21;;;;;;;8.65;5.45;;;;;;;16.10;56.59;101816.27;1701931;83;21148;-50
2021/04/29 08:10:48;;;;;;;6.67;4.70;;;;;;;16.10;56.60;101808.84;1717969;83;21162;-49
2021/04/29 08:13:16;;;;;;;9.60;4.65;;;;;;;16.10;56.66;101814.96;1706493;82;21144;-49
2021/04/29 08:15:47;;;;;;;6.65;5.30;;;;;;;16.11;56.83;101811.45;1708542;83;21598;-48
2021/04/29 08:18:16;;;;;;;8.15;5.33;;;;;;;16.14;56.92;101808.72;1743113;82;21292;-48
2021/04/29 08:20:45;;;;;;;7.37;5.47;;;;;;;16.12;57.04;101803.96;1744666;81;21150;-48
2021/04/29 08:23:14;;;;;;;9.43;5.95;;;;;;;16.18;57.05;101803.79;1738274;82;21176;-47
2021/04/29 08:25:44;;;;;;;8.20;6.50;;;;;;;16.26;57.08;101807.05;1723949;82;21173;-47
2021/04/29 08:28:11;;;;;;;6.60;4.85;;;;;;;16.36;56.92;101813.37;1730308;81;21140;-47
2021/04/29 08:30:39;;;;;;;6.55;4.87;;;;;;;16.46;56.71;101810.88;1717348;83;21126;-48
2021/04/29 08:33:07;;;;;;;6.60;5.42;;;;;;;16.55;56.51;101820.69;1722844;83;21628;-48
2021/04/29 08:35:35;;;;;;;9.48;5.33;;;;;;;16.61;56.21;101818.36;1717208;81;21602;-47
2021/04/29 08:38:03;;;;;;;8.60;5.90;;;;;;;16.71;55.85;101817.17;1724378;81;21575;-48
2021/04/29 08:40:32;;;;;;;21.70;6.40;;;;;;;16.77;55.62;101824.88;1717004;81;21259;-47
2021/04/29 08:43:00;;;;;;;9.75;6.08;;;;;;;16.81;55.47;101819.93;1710598;83;21154;-47
2021/04/29 08:45:29;;;;;;;7.62;5.75;;;;;;;16.83;55.28;101823.37;1717926;83;21568;-47
2021/04/29 08:47:56;;;;;;;7.97;5.22;;;;;;;16.85;55.03;101818.48;1714652;83;21298;-48
2021/04/29 08:50:26;;;;;;;7.72;4.78;;;;;;;16.87;54.85;101821.05;1706658;83;21280;-47
2021/04/29 08:52:55;;;;;;;7.67;5.50;;;;;;;16.86;54.77;101820.63;1716832;83;21143;-47
2021/04/29 08:55:26;;;;;;;14.03;4.92;;;;;;;16.84;55.03;101822.00;1722385;82;21205;-47
2021/04/29 08:57:56;;;;;;;6.50;5.45;;;;;;;16.88;55.23;101831.52;1661386;84;21683;-48
2021/04/29 09:00:24;;;;;;;8.90;5.53;;;;;;;16.97;55.37;101833.87;1693445;84;21171;-48
2021/04/29 09:02:55;;;;;;;8.83;5.55;;;;;;;17.07;54.85;101833.12;1669640;85;21183;-48
2021/04/29 09:05:28;;;;;;;8.45;5.75;;;;;;;17.14;54.68;101833.34;1661982;86;21172;-48
2021/04/29 09:08:07;;;;;;;6.42;5.20;;;;;;;17.24;54.68;101826.87;1761401;79;22615;-47
2021/04/29 09:10:40;;;;;;;6.03;4.47;;;;;;;17.23;54.48;101830.41;1736723;82;21683;-47
2021/04/29 09:13:22;;;;;;;6.75;4.83;;;;;;;17.28;54.40;101835.08;1731760;82;21164;-46
2021/04/29 09:15:50;;;;;;;8.30;5.25;;;;;;;17.31;54.54;101829.70;1729280;82;21565;-48
2021/04/29 09:18:20;;;;;;;7.05;5.30;;;;;;;17.36;54.41;101822.53;1733977;82;21184;-46
2021/04/29 09:20:58;;;;;;;9.40;5.97;;;;;;;17.41;54.25;101820.63;1740722;82;21172;-47
2021/04/29 09:23:30;;;;;;;8.43;5.83;;;;;;;17.47;54.13;101821.73;1732405;82;21567;-47
2021/04/29 09:26:12;;;;;;;9.90;5.87;;;;;;;17.56;54.12;101821.44;1792346;79;22931;-53
2021/04/29 09:28:50;;;;;;;8.63;5.35;;;;;;;17.55;53.98;101832.89;1780300;80;21176;-50
2021/04/29 09:31:22;;;;;;;9.95;5.10;;;;;;;17.56;53.97;101831.97;1780269;80;21139;-45
2021/04/29 09:33:54;;;;;;;6.12;4.70;;;;;;;17.64;53.99;101833.88;1755049;81;21164;-45
2021/04/29 09:36:31;;;;;;;26.93;18.90;;;;;;;17.72;53.72;101834.48;1741306;81;21152;-46
2021/04/29 09:39:14;;;;;;;8.85;8.00;;;;;;;17.78;53.66;101831.63;1729000;82;21169;-46
2021/04/29 09:41:47;;;;;;;7.95;5.45;;;;;;;17.84;53.50;101827.50;1643903;86;21164;-45
2021/04/29 09:44:19;;;;;;;14.50;6.60;;;;;;;17.92;53.27;101829.86;1644671;86;21285;-48
2021/04/29 09:47:01;;;;;;;17.62;6.30;;;;;;;18.03;53.19;101818.95;1761507;79;23092;-50
2021/04/29 09:49:37;;;;;;;24.50;6.97;;;;;;;18.03;52.78;101829.48;1723254;82;21230;-48
2021/04/29 09:52:21;;;;;;;9.18;5.97;;;;;;;18.08;52.69;101832.80;1716502;82;21191;-46
2021/04/29 09:54:49;;;;;;;7.95;5.40;;;;;;;18.09;52.76;101830.59;1720568;82;21166;-49
2021/04/29 09:57:28;;;;;;;18.37;11.75;;;;;;;18.11;52.84;101826.13;1724261;82;21319;-50
2021/04/29 09:59:58;;;;;;;6.42;5.47;;;;;;;18.15;52.65;101828.59;1721461;82;21142;-48
2021/04/29 10:02:29;;;;;;;24.32;9.28;;;;;;;18.21;52.31;101828.83;1715144;82;21205;-50
2021/04/29 10:04:57;;;;;;;13.53;9.58;;;;;;;18.25;52.22;101832.61;1719324;82;21208;-49
2021/04/29 10:07:25;;;;;;;11.60;9.15;;;;;;;18.28;52.03;101827.70;1714154;82;21170;-48
2021/04/29 10:09:53;;;;;;;15.75;10.95;;;;;;;18.30;52.21;101831.14;1723652;82;21153;-50
2021/04/29 10:12:22;;;;;;;14.50;9.48;;;;;;;18.32;52.00;101839.84;1725123;82;21178;-48
2021/04/29 10:14:51;;;;;;;10.45;9.35;;;;;;;18.32;52.10;101831.94;1703692;82;21154;-52
2021/04/29 10:17:21;;;;;;;16.15;10.98;;;;;;;18.33;52.23;101838.91;1711467;82;21177;-51
2021/04/29 10:19:53;;;;;;;17.73;13.08;;;;;;;18.34;52.42;101828.79;1715861;82;21162;-50
2021/04/29 10:22:23;;;;;;;9.63;7.85;;;;;;;18.40;52.68;101827.24;1716815;82;21614;-50
2021/04/29 10:24:57;;;;;;;46.08;16.62;;;;;;;18.53;52.20;101812.70;1768897;79;23061;-46
2021/04/29 10:27:27;;;;;;;46.50;19.17;;;;;;;18.50;52.25;101816.79;1733796;82;21129;-46
2021/04/29 10:30:12;;;;;;;13.38;8.90;;;;;;;18.47;52.34;101812.94;1727163;82;21128;-46
2021/04/29 10:32:41;;;;;;;13.50;8.28;;;;;;;18.60;51.77;101820.80;1732054;82;21156;-44
2021/04/29 10:35:19;;;;;;;11.70;7.67;;;;;;;18.65;51.64;101812.23;1726108;82;21117;-47
2021/04/29 10:38:01;;;;;;;11.08;7.55;;;;;;;18.66;51.48;101812.65;1627323;88;21196;-46
2021/04/29 10:40:40;;;;;;;8.98;5.78;;;;;;;18.63;51.54;101809.66;1629686;88;21177;-47
2021/04/29 10:43:09;;;;;;;10.68;5.67;;;;;;;18.63;51.50;101807.03;1623072;88;21215;-47
2021/04/29 10:45:37;;;;;;;8.08;6.03;;;;;;;18.63;51.44;101810.11;1620826;88;21337;-49
2021/04/29 10:48:10;;;;;;;12.45;6.10;;;;;;;18.68;51.42;101809.49;1565972;90;21320;-47
2021/04/29 10:50:48;;;;;;;10.45;5.90;;;;;;;18.68;51.11;101801.58;1598290;88;21269;-52
2021/04/29 10:53:32;;;;;;;13.78;6.75;;;;;;;18.67;51.01;101805.12;1589719;90;21190;-49
2021/04/29 10:56:13;;;;;;;19.95;6.95;;;;;;;18.65;51.18;101806.96;1589828;90;21184;-49
2021/04/29 10:58:41;;;;;;;10.93;6.50;;;;;;;18.61;51.12;101806.68;1589868;90;21160;-49
2021/04/29 11:01:16;;;;;;;7.08;5.92;;;;;;;18.57;51.29;101806.39;1589648;90;21386;-49
2021/04/29 11:03:50;;;;;;;11.33;6.92;;;;;;;18.54;51.41;101809.16;1585973;90;21253;-48
2021/04/29 11:06:30;;;;;;;7.85;5.47;;;;;;;18.52;51.37;101813.19;1587798;90;21173;-46
2021/04/29 11:08:58;;;;;;;11.70;5.62;;;;;;;18.48;51.16;101808.08;1587257;90;21630;-46
2021/04/29 11:11:35;;;;;;;6.03;5.45;;;;;;;18.46;51.56;101809.91;1601569;89;21147;-50
2021/04/29 11:14:16;;;;;;;6.40;5.62;;;;;;;18.45;51.92;101809.50;1601397;89;21642;-46
2021/04/29 11:16:54;;;;;;;10.35;7.08;;;;;;;18.53;51.60;101810.94;1785074;79;28003;-47
2021/04/29 11:19:47;;;;;;;7.30;6.50;;;;;;;18.54;51.70;101803.89;1775633;80;21139;-48
2021/04/29 11:22:32;;;;;;;9.48;6.45;;;;;;;18.62;51.33;101801.82;1753994;81;21266;-50
2021/04/29 11:25:10;;;;;;;7.72;6.05;;;;;;;18.69;51.32;101800.69;1795534;79;23005;-49
2021/04/29 11:27:40;;;;;;;8.23;6.03;;;;;;;18.66;51.57;101802.97;1765345;80;21151;-47
2021/04/29 11:30:12;;;;;;;9.85;6.80;;;;;;;18.68;51.23;101799.81;1786023;78;21193;-46
2021/04/29 11:32:55;;;;;;;7.95;5.40;;;;;;;18.69;50.94;101796.73;1794752;78;21164;-47
2021/04/29 11:35:26;;;;;;;7.78;5.40;;;;;;;18.67;50.99;101799.84;1779994;80;21169;-49
2021/04/29 11:37:53;;;;;;;8.13;5.85;;;;;;;18.64;50.55;101793.39;1720867;83;21586;-46